createdAt,value
2018-04-25T00:00:05.397Z,97374.83
2018-04-25T00:00:36.965Z,97367.16
2018-04-25T00:01:08.547Z,97369.71
2018-04-25T00:01:40.172Z,97368.06
2018-04-25T00:02:11.748Z,97367.23
2018-04-25T00:02:43.345Z,97366.39
2018-04-25T00:03:14.954Z,97369.39
2018-04-25T00:03:46.524Z,97358.41
2018-04-25T00:04:18.102Z,97365.63
2018-04-25T00:04:49.687Z,97372.02
2018-04-25T00:05:21.290Z,97361.78
2018-04-25T00:05:52.874Z,97364.78
2018-04-25T00:06:24.485Z,97364.36
2018-04-25T00:06:56.116Z,97362.22
2018-04-25T00:07:27.712Z,97366.09
2018-04-25T00:07:59.399Z,97361.86
2018-04-25T00:08:30.944Z,97359.30
2018-04-25T00:09:02.530Z,97358.45
2018-04-25T00:09:34.143Z,97357.17
2018-04-25T00:10:05.756Z,97349.91
2018-04-25T00:10:37.348Z,97349.94
2018-04-25T00:11:08.954Z,97353.34
2018-04-25T00:11:40.614Z,97349.94
2018-04-25T00:12:12.204Z,97351.64
2018-04-25T00:12:43.806Z,97349.94
2018-04-25T00:13:15.390Z,97345.35
2018-04-25T00:13:46.995Z,97350.38
2018-04-25T00:14:18.584Z,97349.95
2018-04-25T00:14:50.176Z,97349.12
2018-04-25T00:15:21.758Z,97349.12
2018-04-25T00:15:53.369Z,97350.40
2018-04-25T00:16:24.978Z,97347.40
2018-04-25T00:16:56.616Z,97347.03
2018-04-25T00:17:28.278Z,97345.35
2018-04-25T00:17:59.891Z,97351.73
2018-04-25T00:18:31.485Z,97346.22
2018-04-25T00:19:03.069Z,97344.06
2018-04-25T00:19:34.655Z,97345.77
2018-04-25T00:20:06.239Z,97349.18
2018-04-25T00:20:37.834Z,97345.34
2018-04-25T00:21:09.415Z,97353.02
2018-04-25T00:21:40.994Z,97348.77
2018-04-25T00:22:12.601Z,97347.06
2018-04-25T00:22:44.252Z,97349.63
2018-04-25T00:23:15.833Z,97344.49
2018-04-25T00:23:47.438Z,97345.77
2018-04-25T00:24:19.079Z,97341.08
2018-04-25T00:24:50.615Z,97341.44
2018-04-25T00:25:22.204Z,97345.75
2018-04-25T00:25:53.821Z,97338.02
2018-04-25T00:26:25.406Z,97342.72
2018-04-25T00:26:56.976Z,97340.63
2018-04-25T00:27:28.586Z,97342.72
2018-04-25T00:28:00.198Z,97344.42
2018-04-25T00:28:31.841Z,97345.66
2018-04-25T00:29:03.440Z,97344.81
2018-04-25T00:29:35.051Z,97342.70
2018-04-25T00:30:06.634Z,97337.53
2018-04-25T00:30:38.238Z,97345.66
2018-04-25T00:31:09.846Z,97340.56
2018-04-25T00:31:41.420Z,97344.81
2018-04-25T00:32:13.026Z,97340.16
2018-04-25T00:32:44.663Z,97340.14
2018-04-25T00:33:16.263Z,97342.28
2018-04-25T00:33:47.866Z,97341.44
2018-04-25T00:34:19.437Z,97338.88
2018-04-25T00:34:51.010Z,97341.02
2018-04-25T00:35:22.590Z,97336.38
2018-04-25T00:35:54.160Z,97336.31
2018-04-25T00:36:25.761Z,97338.44
2018-04-25T00:36:57.374Z,97335.09
2018-04-25T00:37:28.977Z,97337.25
2018-04-25T00:38:00.601Z,97336.73
2018-04-25T00:38:32.186Z,97337.18
2018-04-25T00:39:03.780Z,97338.94
2018-04-25T00:39:35.370Z,97335.53
2018-04-25T00:40:06.954Z,97335.11
2018-04-25T00:40:38.528Z,97331.69
2018-04-25T00:41:10.096Z,97329.20
2018-04-25T00:41:41.728Z,97327.43
2018-04-25T00:42:13.334Z,97331.27
2018-04-25T00:42:44.910Z,97330.31
2018-04-25T00:43:16.514Z,97334.17
2018-04-25T00:43:48.127Z,97332.55
2018-04-25T00:44:19.725Z,97329.90
2018-04-25T00:44:51.301Z,97331.17
2018-04-25T00:45:22.883Z,97329.02
2018-04-25T00:45:54.491Z,97331.59
2018-04-25T00:46:26.082Z,97328.59
2018-04-25T00:46:57.662Z,97327.73
2018-04-25T00:47:29.234Z,97329.85
2018-04-25T00:48:00.875Z,97329.38
2018-04-25T00:48:32.469Z,97325.54
2018-04-25T00:49:04.055Z,97329.38
2018-04-25T00:49:35.658Z,97326.41
2018-04-25T00:50:07.309Z,97321.34
2018-04-25T00:50:38.894Z,97320.53
2018-04-25T00:51:10.478Z,97322.19
2018-04-25T00:51:42.101Z,97321.34
2018-04-25T00:52:13.678Z,97321.77
2018-04-25T00:52:45.261Z,97325.64
2018-04-25T00:53:16.875Z,97323.08
2018-04-25T00:53:48.453Z,97320.52
2018-04-25T00:54:20.054Z,97322.64
2018-04-25T00:54:51.648Z,97323.03
2018-04-25T00:55:23.246Z,97323.89
2018-04-25T00:55:54.830Z,97319.66
2018-04-25T00:56:26.437Z,97317.53
2018-04-25T00:56:58.049Z,97315.38
2018-04-25T00:57:29.650Z,97323.48
2018-04-25T00:58:01.238Z,97318.77
2018-04-25T00:58:32.829Z,97318.77
2018-04-25T00:59:04.440Z,97325.54
2018-04-25T00:59:36.049Z,97320.47
2018-04-25T01:00:07.634Z,97303.31
2018-04-25T01:00:39.242Z,97314.95
2018-04-25T01:01:10.836Z,97314.95
2018-04-25T01:01:42.425Z,97311.55
2018-04-25T01:02:14.041Z,97312.86
2018-04-25T01:02:45.608Z,97313.33
2018-04-25T01:03:17.214Z,97311.66
2018-04-25T01:03:48.807Z,97316.31
2018-04-25T01:04:20.457Z,97309.02
2018-04-25T01:04:52.106Z,97304.38
2018-04-25T01:05:23.693Z,97312.42
2018-04-25T01:05:56.298Z,97314.12
2018-04-25T01:06:27.886Z,97313.25
2018-04-25T01:06:59.469Z,97307.70
2018-04-25T01:07:31.069Z,97307.25
2018-04-25T01:08:02.678Z,97310.66
2018-04-25T01:08:34.316Z,97308.90
2018-04-25T01:09:05.921Z,97312.72
2018-04-25T01:09:37.520Z,97304.25
2018-04-25T01:10:09.110Z,97306.81
2018-04-25T01:10:40.714Z,97303.41
2018-04-25T01:11:12.306Z,97304.27
2018-04-25T01:11:43.993Z,97305.55
2018-04-25T01:12:15.483Z,97305.16
2018-04-25T01:12:47.138Z,97303.45
2018-04-25T01:13:18.722Z,97305.58
2018-04-25T01:13:50.329Z,97303.02
2018-04-25T01:14:21.929Z,97300.41
2018-04-25T01:14:53.511Z,97303.02
2018-04-25T01:15:25.098Z,97303.85
2018-04-25T01:15:56.689Z,97299.69
2018-04-25T01:16:28.278Z,97295.75
2018-04-25T01:16:59.881Z,97296.58
2018-04-25T01:17:31.489Z,97291.49
2018-04-25T01:18:03.075Z,97291.15
2018-04-25T01:18:34.702Z,97298.66
2018-04-25T01:19:06.310Z,97288.39
2018-04-25T01:19:37.923Z,97294.36
2018-04-25T01:20:09.548Z,97293.91
2018-04-25T01:20:41.134Z,97290.49
2018-04-25T01:21:12.737Z,97287.04
2018-04-25T01:21:44.332Z,97287.04
2018-04-25T01:22:15.926Z,97288.28
2018-04-25T01:22:47.518Z,97286.58
2018-04-25T01:23:19.093Z,97289.98
2018-04-25T01:23:50.718Z,97283.99
2018-04-25T01:24:22.310Z,97278.03
2018-04-25T01:24:53.916Z,97280.57
2018-04-25T01:25:25.530Z,97281.85
2018-04-25T01:26:02.944Z,97275.91
2018-04-25T01:26:34.537Z,97281.90
2018-04-25T01:27:06.130Z,97282.31
2018-04-25T01:27:37.729Z,97276.36
2018-04-25T01:28:09.325Z,97277.62
2018-04-25T01:28:40.933Z,97275.91
2018-04-25T01:29:12.552Z,97277.17
2018-04-25T01:29:44.195Z,97280.17
2018-04-25T01:30:15.785Z,97281.45
2018-04-25T01:30:47.390Z,97274.22
2018-04-25T01:31:18.979Z,97278.45
2018-04-25T01:31:50.582Z,97279.34
2018-04-25T01:32:22.174Z,97277.27
2018-04-25T01:32:53.761Z,97274.39
2018-04-25T01:33:25.344Z,97278.55
2018-04-25T01:33:56.954Z,97284.11
2018-04-25T01:34:28.598Z,97274.31
2018-04-25T01:35:00.182Z,97270.05
2018-04-25T01:35:31.776Z,97276.02
2018-04-25T01:36:03.385Z,97271.29
2018-04-25T01:36:35.009Z,97273.03
2018-04-25T01:37:06.604Z,97274.30
2018-04-25T01:37:38.249Z,97273.43
2018-04-25T01:38:09.853Z,97268.85
2018-04-25T01:38:41.449Z,97270.05
2018-04-25T01:39:13.058Z,97274.31
2018-04-25T01:39:44.661Z,97268.77
2018-04-25T01:40:16.256Z,97270.05
2018-04-25T01:40:47.870Z,97272.59
2018-04-25T01:41:19.458Z,97268.77
2018-04-25T01:41:51.048Z,97273.43
2018-04-25T01:42:22.658Z,97272.16
2018-04-25T01:42:54.305Z,97271.75
2018-04-25T01:43:25.916Z,97271.34
2018-04-25T01:43:57.484Z,97272.62
2018-04-25T01:44:29.057Z,97269.27
2018-04-25T01:45:00.638Z,97266.71
2018-04-25T01:45:32.205Z,97269.30
2018-04-25T01:46:03.797Z,97268.88
2018-04-25T01:46:35.390Z,97264.20
2018-04-25T01:47:06.961Z,97265.45
2018-04-25T01:47:38.562Z,97267.15
2018-04-25T01:48:10.211Z,97266.73
2018-04-25T01:48:41.805Z,97261.61
2018-04-25T01:49:13.409Z,97263.75
2018-04-25T01:49:45.071Z,97260.77
2018-04-25T01:50:16.645Z,97263.33
2018-04-25T01:50:48.231Z,97258.70
2018-04-25T01:51:19.810Z,97257.35
2018-04-25T01:51:51.420Z,97262.47
2018-04-25T01:52:23.025Z,97259.91
2018-04-25T01:52:54.634Z,97258.63
2018-04-25T01:53:26.232Z,97265.92
2018-04-25T01:53:57.838Z,97256.07
2018-04-25T01:54:29.455Z,97257.35
2018-04-25T01:55:01.076Z,97257.35
2018-04-25T01:55:32.668Z,97256.52
2018-04-25T01:56:04.255Z,97256.52
2018-04-25T01:56:35.858Z,97256.53
2018-04-25T01:57:07.442Z,97257.81
2018-04-25T01:57:39.036Z,97254.80
2018-04-25T01:58:10.618Z,97259.50
2018-04-25T01:58:42.263Z,97253.93
2018-04-25T01:59:13.851Z,97258.21
2018-04-25T01:59:45.473Z,97256.94
2018-04-25T02:00:17.057Z,97252.25
2018-04-25T02:00:48.666Z,97254.88
2018-04-25T02:01:20.321Z,97252.67
2018-04-25T02:01:51.914Z,97253.53
2018-04-25T02:02:23.503Z,97253.53
2018-04-25T02:02:55.130Z,97253.12
2018-04-25T02:03:26.714Z,97249.75
2018-04-25T02:03:58.304Z,97247.19
2018-04-25T02:04:29.889Z,97250.61
2018-04-25T02:05:01.489Z,97248.86
2018-04-25T02:05:33.074Z,97248.05
2018-04-25T02:06:04.640Z,97248.91
2018-04-25T02:06:36.208Z,97243.36
2018-04-25T02:07:07.787Z,97249.33
2018-04-25T02:07:39.366Z,97242.95
2018-04-25T02:08:10.985Z,97249.33
2018-04-25T02:08:42.576Z,97250.61
2018-04-25T02:09:14.176Z,97249.70
2018-04-25T02:09:45.758Z,97243.80
2018-04-25T02:10:17.357Z,97245.52
2018-04-25T02:10:48.977Z,97244.23
2018-04-25T02:11:20.594Z,97242.53
2018-04-25T02:11:52.197Z,97244.64
2018-04-25T02:12:23.772Z,97239.97
2018-04-25T02:12:55.375Z,97245.52
2018-04-25T02:13:26.977Z,97242.09
2018-04-25T02:13:58.548Z,97242.08
2018-04-25T02:14:30.120Z,97243.81
2018-04-25T02:15:01.733Z,97237.45
2018-04-25T02:15:33.332Z,97238.67
2018-04-25T02:16:04.944Z,97244.63
2018-04-25T02:16:36.550Z,97242.45
2018-04-25T02:17:08.158Z,97237.81
2018-04-25T02:17:39.762Z,97240.80
2018-04-25T02:18:11.361Z,97231.92
2018-04-25T02:18:42.942Z,97235.27
2018-04-25T02:19:14.560Z,97238.70
2018-04-25T02:19:46.145Z,97239.10
2018-04-25T02:20:17.753Z,97237.81
2018-04-25T02:20:49.348Z,97234.84
2018-04-25T02:21:20.944Z,97241.66
2018-04-25T02:21:52.554Z,97236.98
2018-04-25T02:22:24.129Z,97234.01
2018-04-25T02:22:55.706Z,97239.12
2018-04-25T02:23:27.287Z,97237.92
2018-04-25T02:23:58.878Z,97242.60
2018-04-25T02:24:30.530Z,97235.77
2018-04-25T02:25:02.194Z,97234.50
2018-04-25T02:25:33.810Z,97232.73
2018-04-25T02:26:05.380Z,97234.90
2018-04-25T02:26:36.972Z,97234.48
2018-04-25T02:27:08.558Z,97233.22
2018-04-25T02:27:40.142Z,97231.55
2018-04-25T02:28:11.721Z,97234.52
2018-04-25T02:28:43.306Z,97235.86
2018-04-25T02:29:14.886Z,97230.73
2018-04-25T02:29:46.489Z,97225.25
2018-04-25T02:30:18.122Z,97231.60
2018-04-25T02:30:49.726Z,97222.24
2018-04-25T02:31:21.312Z,97232.48
2018-04-25T02:31:52.899Z,97229.09
2018-04-25T02:32:24.506Z,97231.23
2018-04-25T02:32:56.114Z,97230.80
2018-04-25T02:33:27.689Z,97232.92
2018-04-25T02:33:59.275Z,97231.23
2018-04-25T02:34:30.891Z,97231.28
2018-04-25T02:35:02.489Z,97232.56
2018-04-25T02:35:34.127Z,97232.14
2018-04-25T02:36:05.729Z,97230.44
2018-04-25T02:36:37.318Z,97228.72
2018-04-25T02:37:08.924Z,97233.00
2018-04-25T02:37:40.573Z,97223.20
2018-04-25T02:38:12.158Z,97231.32
2018-04-25T02:38:43.746Z,97227.05
2018-04-25T02:39:15.330Z,97224.91
2018-04-25T02:39:46.924Z,97229.61
2018-04-25T02:40:18.497Z,97223.19
2018-04-25T02:40:50.106Z,97224.27
2018-04-25T02:41:21.713Z,97222.88
2018-04-25T02:41:53.319Z,97226.52
2018-04-25T02:42:24.905Z,97221.56
2018-04-25T02:42:56.517Z,97225.52
2018-04-25T02:43:28.098Z,97226.87
2018-04-25T02:43:59.669Z,97222.35
2018-04-25T02:44:31.296Z,97218.63
2018-04-25T02:45:02.889Z,97225.13
2018-04-25T02:45:34.493Z,97218.87
2018-04-25T02:46:06.082Z,97221.95
2018-04-25T02:46:37.675Z,97217.79
2018-04-25T02:47:09.264Z,97224.27
2018-04-25T02:47:40.872Z,97220.05
2018-04-25T02:48:12.496Z,97215.01
2018-04-25T02:48:44.105Z,97221.00
2018-04-25T02:49:15.714Z,97218.94
2018-04-25T02:49:47.365Z,97219.38
2018-04-25T02:50:18.949Z,97216.48
2018-04-25T02:50:50.530Z,97220.77
2018-04-25T02:51:22.114Z,97215.34
2018-04-25T02:51:53.702Z,97214.91
2018-04-25T02:52:25.309Z,97211.09
2018-04-25T02:52:56.914Z,97216.50
2018-04-25T02:53:28.518Z,97215.97
2018-04-25T02:54:00.142Z,97214.70
2018-04-25T02:54:31.737Z,97215.69
2018-04-25T02:55:03.418Z,97213.34
2018-04-25T02:55:34.993Z,97208.33
2018-04-25T02:56:06.601Z,97209.61
2018-04-25T02:56:38.206Z,97200.75
2018-04-25T02:57:09.782Z,97196.97
2018-04-25T02:57:41.362Z,97198.05
2018-04-25T02:58:12.960Z,97199.02
2018-04-25T02:58:44.554Z,97194.29
2018-04-25T02:59:16.123Z,97196.66
2018-04-25T02:59:47.706Z,97198.20
2018-04-25T03:00:19.347Z,97199.34
2018-04-25T03:00:50.926Z,97197.53
2018-04-25T03:01:22.522Z,97197.41
2018-04-25T03:01:54.093Z,97200.79
2018-04-25T03:02:25.674Z,97204.07
2018-04-25T03:02:57.254Z,97200.14
2018-04-25T03:03:28.862Z,97197.96
2018-04-25T03:04:00.450Z,97203.41
2018-04-25T03:04:32.034Z,97200.75
2018-04-25T03:05:03.630Z,97203.66
2018-04-25T03:05:35.210Z,97199.36
2018-04-25T03:06:06.815Z,97182.22
2018-04-25T03:06:38.398Z,97202.66
2018-04-25T03:07:09.992Z,97198.75
2018-04-25T03:07:41.577Z,97205.53
2018-04-25T03:08:13.178Z,97183.36
2018-04-25T03:08:44.783Z,97205.02
2018-04-25T03:09:16.366Z,97199.09
2018-04-25T03:09:47.954Z,97203.28
2018-04-25T03:10:19.536Z,97200.67
2018-04-25T03:10:51.170Z,97203.13
2018-04-25T03:11:22.774Z,97200.55
2018-04-25T03:11:54.359Z,97198.84
2018-04-25T03:12:25.940Z,97195.00
2018-04-25T03:12:57.551Z,97196.16
2018-04-25T03:13:29.158Z,97200.84
2018-04-25T03:14:00.757Z,97194.86
2018-04-25T03:14:32.343Z,97196.50
2018-04-25T03:15:03.916Z,97193.92
2018-04-25T03:15:35.508Z,97197.27
2018-04-25T03:16:07.152Z,97189.64
2018-04-25T03:16:38.740Z,97191.36
2018-04-25T03:17:10.322Z,97188.37
2018-04-25T03:17:41.916Z,97190.88
2018-04-25T03:18:13.561Z,97189.13
2018-04-25T03:18:45.146Z,97187.02
2018-04-25T03:19:16.750Z,97191.27
2018-04-25T03:19:48.340Z,97187.83
2018-04-25T03:20:19.950Z,97186.55
2018-04-25T03:20:51.534Z,97186.55
2018-04-25T03:21:23.115Z,97180.96
2018-04-25T03:21:54.705Z,97184.80
2018-04-25T03:22:26.301Z,97178.82
2018-04-25T03:22:57.962Z,97181.37
2018-04-25T03:23:29.560Z,97178.38
2018-04-25T03:24:01.170Z,97174.10
2018-04-25T03:24:32.745Z,97177.08
2018-04-25T03:25:04.336Z,97169.80
2018-04-25T03:25:35.907Z,97171.47
2018-04-25T03:26:07.486Z,97167.61
2018-04-25T03:26:39.054Z,97169.41
2018-04-25T03:27:10.662Z,97166.30
2018-04-25T03:27:42.266Z,97171.00
2018-04-25T03:28:13.894Z,97169.23
2018-04-25T03:28:45.489Z,97163.25
2018-04-25T03:29:17.078Z,97169.30
2018-04-25T03:29:48.658Z,97165.00
2018-04-25T03:30:20.252Z,97165.81
2018-04-25T03:30:51.858Z,97164.19
2018-04-25T03:31:23.433Z,97162.79
2018-04-25T03:31:55.072Z,97162.79
2018-04-25T03:32:26.673Z,97158.13
2018-04-25T03:32:58.288Z,97164.05
2018-04-25T03:33:29.893Z,97161.06
2018-04-25T03:34:01.481Z,97155.77
2018-04-25T03:34:33.085Z,97155.77
2018-04-25T03:35:04.669Z,97157.11
2018-04-25T03:35:36.273Z,97156.25
2018-04-25T03:36:07.858Z,97154.08
2018-04-25T03:36:39.467Z,97159.25
2018-04-25T03:37:11.131Z,97157.91
2018-04-25T03:37:42.737Z,97157.99
2018-04-25T03:38:14.350Z,97151.62
2018-04-25T03:38:45.965Z,97152.44
2018-04-25T03:39:17.590Z,97153.71
2018-04-25T03:39:49.200Z,97151.57
2018-04-25T03:40:20.800Z,97147.31
2018-04-25T03:40:52.396Z,97147.31
2018-04-25T03:41:24.002Z,97145.20
2018-04-25T03:41:55.610Z,97145.64
2018-04-25T03:42:27.181Z,97149.03
2018-04-25T03:42:58.754Z,97142.24
2018-04-25T03:43:30.341Z,97148.64
2018-04-25T03:44:01.977Z,97143.58
2018-04-25T03:44:33.592Z,97145.28
2018-04-25T03:45:05.193Z,97138.80
2018-04-25T03:45:36.807Z,97149.87
2018-04-25T03:46:08.459Z,97144.36
2018-04-25T03:46:40.034Z,97140.08
2018-04-25T03:47:11.608Z,97136.24
2018-04-25T03:47:43.190Z,97140.89
2018-04-25T03:48:14.833Z,97134.10
2018-04-25T03:48:46.509Z,97131.20
2018-04-25T03:49:18.058Z,97130.73
2018-04-25T03:49:49.631Z,97132.84
2018-04-25T03:50:21.234Z,97131.14
2018-04-25T03:50:52.829Z,97132.87
2018-04-25T03:51:24.442Z,97131.56
2018-04-25T03:51:56.030Z,97130.36
2018-04-25T03:52:27.629Z,97130.36
2018-04-25T03:52:59.263Z,97130.36
2018-04-25T03:53:30.850Z,97135.42
2018-04-25T03:54:02.458Z,97126.16
2018-04-25T03:54:34.107Z,97127.81
2018-04-25T03:55:05.690Z,97129.52
2018-04-25T03:55:37.294Z,97131.27
2018-04-25T03:56:08.867Z,97130.83
2018-04-25T03:56:40.514Z,97132.55
2018-04-25T03:57:12.136Z,97129.58
2018-04-25T03:57:43.737Z,97132.61
2018-04-25T03:58:15.345Z,97127.91
2018-04-25T03:58:46.917Z,97131.33
2018-04-25T03:59:18.508Z,97125.37
2018-04-25T03:59:50.093Z,97130.05
2018-04-25T04:00:21.684Z,97129.65
2018-04-25T04:00:53.314Z,97118.16
2018-04-25T04:01:24.918Z,97130.07
2018-04-25T04:01:56.506Z,97132.20
2018-04-25T04:02:28.089Z,97123.67
2018-04-25T04:02:59.670Z,97121.11
2018-04-25T04:03:31.254Z,97122.81
2018-04-25T04:04:02.853Z,97127.95
2018-04-25T04:04:34.446Z,97125.84
2018-04-25T04:05:06.017Z,97129.25
2018-04-25T04:05:37.602Z,97127.95
2018-04-25T04:06:09.246Z,97123.75
2018-04-25T04:06:40.826Z,97120.35
2018-04-25T04:07:12.414Z,97116.08
2018-04-25T04:07:43.995Z,97114.32
2018-04-25T04:08:15.610Z,97117.72
2018-04-25T04:08:47.198Z,97113.09
2018-04-25T04:09:18.802Z,97113.14
2018-04-25T04:09:50.457Z,97116.14
2018-04-25T04:10:22.062Z,97114.44
2018-04-25T04:10:53.665Z,97119.56
2018-04-25T04:11:25.290Z,97117.00
2018-04-25T04:11:56.883Z,97115.38
2018-04-25T04:12:28.494Z,97114.11
2018-04-25T04:13:00.175Z,97109.01
2018-04-25T04:13:31.700Z,97114.18
2018-04-25T04:14:03.276Z,97119.73
2018-04-25T04:14:34.868Z,97114.20
2018-04-25T04:15:06.481Z,97113.00
2018-04-25T04:15:38.072Z,97114.30
2018-04-25T04:16:09.678Z,97112.21
2018-04-25T04:16:41.261Z,97113.92
2018-04-25T04:17:12.863Z,97113.13
2018-04-25T04:17:44.450Z,97115.28
2018-04-25T04:18:16.093Z,97113.14
2018-04-25T04:18:47.730Z,97114.47
2018-04-25T04:19:19.311Z,97113.19
2018-04-25T04:19:50.908Z,97113.66
2018-04-25T04:20:22.518Z,97109.43
2018-04-25T04:20:54.099Z,97106.13
2018-04-25T04:21:25.699Z,97109.92
2018-04-25T04:21:57.306Z,97113.37
2018-04-25T04:22:28.914Z,97113.37
2018-04-25T04:23:00.500Z,97101.91
2018-04-25T04:23:32.129Z,97110.85
2018-04-25T04:24:03.700Z,97115.11
2018-04-25T04:24:35.328Z,97104.94
2018-04-25T04:25:06.929Z,97104.09
2018-04-25T04:25:38.518Z,97109.65
2018-04-25T04:26:10.122Z,97102.40
2018-04-25T04:26:41.692Z,97110.09
2018-04-25T04:27:13.256Z,97110.51
2018-04-25T04:27:44.853Z,97103.72
2018-04-25T04:28:16.448Z,97104.66
2018-04-25T04:28:48.092Z,97110.17
2018-04-25T04:29:19.675Z,97110.59
2018-04-25T04:29:51.264Z,97105.49
2018-04-25T04:30:22.860Z,97108.89
2018-04-25T04:30:54.456Z,97110.61
2018-04-25T04:31:26.072Z,97107.22
2018-04-25T04:31:57.663Z,97113.19
2018-04-25T04:32:29.249Z,97105.09
2018-04-25T04:33:00.833Z,97111.05
2018-04-25T04:33:32.434Z,97103.02
2018-04-25T04:34:04.039Z,97105.57
2018-04-25T04:34:35.633Z,97106.80
2018-04-25T04:35:07.227Z,97109.41
2018-04-25T04:35:38.830Z,97101.31
2018-04-25T04:36:10.458Z,97105.15
2018-04-25T04:36:42.048Z,97105.59
2018-04-25T04:37:13.630Z,97119.70
2018-04-25T04:37:45.239Z,97097.92
2018-04-25T04:38:16.825Z,97100.48
2018-04-25T04:38:48.432Z,97100.03
2018-04-25T04:39:20.029Z,97104.31
2018-04-25T04:39:51.638Z,97106.01
2018-04-25T04:40:23.252Z,97101.75
2018-04-25T04:40:54.863Z,97101.80
2018-04-25T04:41:26.478Z,97100.48
2018-04-25T04:41:58.080Z,97098.78
2018-04-25T04:42:29.676Z,97101.75
2018-04-25T04:43:01.261Z,97094.92
2018-04-25T04:43:32.871Z,97095.36
2018-04-25T04:44:04.503Z,97095.73
2018-04-25T04:44:36.096Z,97092.36
2018-04-25T04:45:07.714Z,97093.23
2018-04-25T04:45:39.321Z,97094.50
2018-04-25T04:46:10.926Z,97084.30
2018-04-25T04:46:42.510Z,97093.25
2018-04-25T04:47:14.113Z,97091.55
2018-04-25T04:47:45.722Z,97092.83
2018-04-25T04:48:17.307Z,97093.66
2018-04-25T04:48:48.877Z,97092.39
2018-04-25T04:49:20.458Z,97092.41
2018-04-25T04:49:52.067Z,97089.83
2018-04-25T04:50:23.646Z,97092.80
2018-04-25T04:50:55.231Z,97094.08
2018-04-25T04:51:26.863Z,97095.78
2018-04-25T04:51:58.486Z,97091.89
2018-04-25T04:52:30.080Z,97091.89
2018-04-25T04:53:01.671Z,97090.23
2018-04-25T04:53:33.254Z,97090.59
2018-04-25T04:54:04.824Z,97087.17
2018-04-25T04:54:36.415Z,97090.15
2018-04-25T04:55:08.008Z,97091.84
2018-04-25T04:55:39.580Z,97087.59
2018-04-25T04:56:11.165Z,97092.21
2018-04-25T04:56:42.822Z,97091.33
2018-04-25T04:57:14.403Z,97090.47
2018-04-25T04:57:45.987Z,97090.89
2018-04-25T04:58:17.576Z,97090.89
2018-04-25T04:58:49.172Z,97087.57
2018-04-25T04:59:20.747Z,97092.58
2018-04-25T04:59:52.350Z,97092.58
2018-04-25T05:00:23.949Z,97086.17
2018-04-25T05:00:55.545Z,97084.00
2018-04-25T05:01:27.139Z,97088.25
2018-04-25T05:01:58.798Z,97090.37
2018-04-25T05:02:30.386Z,97086.09
2018-04-25T05:03:01.996Z,97089.47
2018-04-25T05:03:33.602Z,97094.11
2018-04-25T05:04:05.205Z,97079.62
2018-04-25T05:04:36.794Z,97080.45
2018-04-25T05:05:08.399Z,97079.67
2018-04-25T05:05:39.997Z,97083.41
2018-04-25T05:06:11.579Z,97086.80
2018-04-25T05:06:43.158Z,97086.75
2018-04-25T05:07:14.809Z,97087.61
2018-04-25T05:07:46.449Z,97087.15
2018-04-25T05:08:18.055Z,97080.34
2018-04-25T05:08:49.625Z,97079.47
2018-04-25T05:09:21.216Z,97087.97
2018-04-25T05:09:52.822Z,97075.17
2018-04-25T05:10:24.422Z,97078.12
2018-04-25T05:10:56.018Z,97077.67
2018-04-25T05:11:27.598Z,97072.56
2018-04-25T05:11:59.182Z,97076.45
2018-04-25T05:12:30.806Z,97082.87
2018-04-25T05:13:02.403Z,97076.03
2018-04-25T05:13:34.006Z,97087.15
2018-04-25T05:14:05.606Z,97077.75
2018-04-25T05:14:37.200Z,97082.05
2018-04-25T05:15:08.811Z,97085.97
2018-04-25T05:15:40.432Z,97082.89
2018-04-25T05:16:12.033Z,97084.17
2018-04-25T05:16:43.642Z,97093.98
2018-04-25T05:17:15.280Z,97086.70
2018-04-25T05:17:46.866Z,97079.50
2018-04-25T05:18:18.470Z,97092.68
2018-04-25T05:18:50.098Z,97094.82
2018-04-25T05:19:21.687Z,97093.52
2018-04-25T05:19:53.314Z,97089.80
2018-04-25T05:20:24.921Z,97094.41
2018-04-25T05:20:56.510Z,97094.80
2018-04-25T05:21:28.097Z,97096.09
2018-04-25T05:21:59.702Z,97093.56
2018-04-25T05:22:31.356Z,97096.55
2018-04-25T05:23:02.946Z,97095.27
2018-04-25T05:23:34.543Z,97095.68
2018-04-25T05:24:06.158Z,97092.36
2018-04-25T05:24:37.845Z,97090.13
2018-04-25T05:25:09.432Z,97096.96
2018-04-25T05:25:41.023Z,97079.08
2018-04-25T05:26:12.621Z,97100.38
2018-04-25T05:26:44.225Z,97093.08
2018-04-25T05:27:16.501Z,97095.64
2018-04-25T05:27:48.073Z,97097.36
2018-04-25T05:28:19.645Z,97096.52
2018-04-25T05:28:51.239Z,97100.33
2018-04-25T05:29:22.808Z,97099.50
2018-04-25T05:29:54.409Z,97102.05
2018-04-25T05:30:26.061Z,97101.22
2018-04-25T05:30:57.661Z,97100.38
2018-04-25T05:31:29.232Z,97097.45
2018-04-25T05:32:00.883Z,97101.73
2018-04-25T05:32:32.611Z,97103.03
2018-04-25T05:33:04.222Z,97101.75
2018-04-25T05:33:35.871Z,97105.57
2018-04-25T05:34:07.518Z,97095.28
2018-04-25T05:34:39.113Z,97097.92
2018-04-25T05:35:10.717Z,97107.27
2018-04-25T05:35:42.313Z,97100.92
2018-04-25T05:36:13.905Z,97100.06
2018-04-25T05:36:45.501Z,97106.09
2018-04-25T05:37:17.082Z,97097.94
2018-04-25T05:37:48.689Z,97105.20
2018-04-25T05:38:20.352Z,97105.25
2018-04-25T05:38:51.978Z,97103.53
2018-04-25T05:39:23.596Z,97101.78
2018-04-25T05:39:55.174Z,97104.81
2018-04-25T05:40:26.760Z,97109.92
2018-04-25T05:40:58.342Z,97106.11
2018-04-25T05:41:29.932Z,97104.41
2018-04-25T05:42:01.516Z,97102.30
2018-04-25T05:42:33.935Z,97107.86
2018-04-25T05:43:05.509Z,97103.58
2018-04-25T05:43:37.076Z,97098.91
2018-04-25T05:44:08.645Z,97103.18
2018-04-25T05:44:40.293Z,97104.07
2018-04-25T05:45:11.899Z,97105.89
2018-04-25T05:45:43.514Z,97101.56
2018-04-25T05:46:15.102Z,97107.95
2018-04-25T05:46:46.702Z,97114.77
2018-04-25T05:47:18.296Z,97101.98
2018-04-25T05:47:49.984Z,97110.05
2018-04-25T05:48:21.570Z,97110.05
2018-04-25T05:48:53.141Z,97116.05
2018-04-25T05:49:24.746Z,97115.62
2018-04-25T05:49:56.370Z,97112.23
2018-04-25T05:50:27.941Z,97111.38
2018-04-25T05:50:59.674Z,97111.79
2018-04-25T05:51:31.312Z,97111.34
2018-04-25T05:52:02.950Z,97104.95
2018-04-25T05:52:34.530Z,97108.77
2018-04-25T05:53:06.110Z,97109.21
2018-04-25T05:53:37.691Z,97113.47
2018-04-25T05:54:09.280Z,97101.52
2018-04-25T05:54:40.942Z,97103.13
2018-04-25T05:55:12.540Z,97106.99
2018-04-25T05:55:44.154Z,97111.27
2018-04-25T05:56:15.746Z,97101.05
2018-04-25T05:56:47.326Z,97109.21
2018-04-25T05:57:18.903Z,97108.38
2018-04-25T05:57:50.555Z,97111.34
2018-04-25T05:58:22.082Z,97111.33
2018-04-25T05:58:53.670Z,97104.07
2018-04-25T05:59:25.250Z,97105.80
2018-04-25T05:59:56.894Z,97108.72
2018-04-25T06:00:28.488Z,97107.44
2018-04-25T06:01:00.150Z,97113.41
2018-04-25T06:01:31.734Z,97103.67
2018-04-25T06:02:03.318Z,97101.54
2018-04-25T06:02:34.898Z,97098.66
2018-04-25T06:03:06.488Z,97096.52
2018-04-25T06:03:38.071Z,97101.56
2018-04-25T06:04:09.660Z,97108.38
2018-04-25T06:04:41.254Z,97100.70
2018-04-25T06:05:12.854Z,97099.00
2018-04-25T06:05:44.449Z,97107.53
2018-04-25T06:06:16.094Z,97106.67
2018-04-25T06:06:47.671Z,97109.23
2018-04-25T06:07:19.263Z,97096.13
2018-04-25T06:07:50.852Z,97100.28
2018-04-25T06:08:22.420Z,97099.44
2018-04-25T06:08:54.021Z,97100.70
2018-04-25T06:09:25.646Z,97097.72
2018-04-25T06:09:57.248Z,97094.75
2018-04-25T06:10:28.855Z,97098.56
2018-04-25T06:11:00.427Z,97101.52